Conway, Iowa
Current Conditions -  °F | °C
As of 3:35 PM on Friday 19 Dec 2014 (Local Time) from KICL Reporting Station
Overcast Overcast  
Wind Chill: 22°   Ceiling: 500
Heat Index: 30°   Visibility: 7mi
Dew Point: 30°   Wind: 9mph
Humidity: 100%   Direction: 210°SSW
Pressure: 30.22"   Gusts: NA
Location:  40.6544°N, 94.7435°W
Report Text: KICL 192135Z AUTO 21008KT 7SM OVC005 M01/M01 A3022 RMK AO2
Loading
Personal Weather Stations






























Interactive Weather Map New forecast layout! Learn more

10-Day Weather Forecast

Advertisements
Track Severe Weather on mobile